Woodhall Spa, United Kingdom
Current Conditions -  °F | °C
As of 1:50 PM on Saturday 20 Dec 2014 (Local Time) from EGXC Reporting Station
Broken Clouds Broken Clouds  
Wind Chill: 43°   Ceiling: 3200
Heat Index: 48°   Visibility: 6mi
Dew Point: 41°   Wind: 14mph
Humidity: 76%   Direction: 290°WNW
Pressure: 30.21"   Gusts: NA
Location:  53.15°N, 0.21°W
Report Text: EGXC 201350Z 29012KT 9999 BKN032 09/05 Q1023 BLU
Loading
Personal Weather Stations






























Interactive Weather Map New forecast layout! Learn more

10-Day Weather Forecast

Advertisements
Track Severe Weather on mobile